DAL1748 KSAN-KLAX
Flight info
| Callsign | DAL1748 |
|---|---|
| Flight time | N/A |
| Altitude | 10000 |
| Route | CWARD2 SLI |
| Aircraft | E75L/M-SDE3GILORVW/S |
Departure
| Time | 2026-04-20 03:16 |
|---|---|
| Airport | San Diego International Airport (KSAN) |
Arrival
| Time | N/A |
|---|---|
| Airport | Los Angeles International Airport (KLAX) |
| Time | Latitude | Longitude | Altitude | Speed | Heading |
|---|---|---|---|---|---|
| 2026-04-20 03:06 | 32.73316 | -117.19571 | 26 ft | 0 kts | 224° |
| 2026-04-20 03:11 | 32.73317 | -117.19570 | 26 ft | 1 kts | 224° |
| 2026-04-20 03:11 | 32.73339 | -117.19544 | 27 ft | 5 kts | 224° |
| 2026-04-20 03:11 | 32.73371 | -117.19530 | 27 ft | 5 kts | 166° |
| 2026-04-20 03:11 | 32.73395 | -117.19558 | 27 ft | 5 kts | 102° |
| 2026-04-20 03:12 | 32.73391 | -117.19536 | 28 ft | 5 kts | 106° |
| 2026-04-20 03:12 | 32.73389 | -117.19530 | 28 ft | 0 kts | 106° |
| 2026-04-20 03:12 | 32.73363 | -117.19424 | 27 ft | 31 kts | 105° |
| 2026-04-20 03:12 | 32.73287 | -117.19115 | 28 ft | 38 kts | 107° |
| 2026-04-20 03:13 | 32.73225 | -117.18842 | 27 ft | 30 kts | 110° |
| 2026-04-20 03:13 | 32.73173 | -117.18630 | 27 ft | 28 kts | 104° |
| 2026-04-20 03:13 | 32.73107 | -117.18363 | 26 ft | 39 kts | 105° |
| 2026-04-20 03:13 | 32.73031 | -117.18057 | 21 ft | 46 kts | 110° |
| 2026-04-20 03:14 | 32.72951 | -117.17730 | 20 ft | 27 kts | 104° |
| 2026-04-20 03:14 | 32.72992 | -117.17585 | 25 ft | 12 kts | 24° |
| 2026-04-20 03:14 | 32.73035 | -117.17646 | 23 ft | 11 kts | 285° |
| 2026-04-20 03:14 | 32.73036 | -117.17650 | 23 ft | 0 kts | 285° |
| 2026-04-20 03:15 | 32.73041 | -117.17671 | 22 ft | 21 kts | 286° |
| 2026-04-20 03:15 | 32.73155 | -117.18141 | 23 ft | 95 kts | 286° |
| 2026-04-20 03:15 | 32.73394 | -117.19128 | 45 ft | 141 kts | 285° |
| 2026-04-20 03:16 | 32.73627 | -117.20215 | 267 ft | 129 kts | 282° |
| 2026-04-20 03:16 | 32.73922 | -117.21423 | 414 ft | 160 kts | 292° |
| 2026-04-20 03:16 | 32.74518 | -117.22653 | 562 ft | 184 kts | 301° |
| 2026-04-20 03:16 | 32.75248 | -117.23807 | 836 ft | 168 kts | 305° |
| 2026-04-20 03:17 | 32.75965 | -117.24850 | 1098 ft | 158 kts | 305° |
| 2026-04-20 03:17 | 32.76584 | -117.25879 | 1363 ft | 149 kts | 300° |
| 2026-04-20 03:17 | 32.77103 | -117.26860 | 1611 ft | 130 kts | 299° |
| 2026-04-20 03:17 | 32.77633 | -117.27644 | 1648 ft | 118 kts | 339° |
| 2026-04-20 03:18 | 32.78115 | -117.27732 | 528 ft | 0 kts | 4° |
| 2026-04-20 03:18 | 32.79315 | -117.28760 | 813 ft | 222 kts | 314° |
| 2026-04-20 03:18 | 32.80306 | -117.30095 | 437 ft | 215 kts | 302° |